Aviation Digital Data Service (ADDS)

Output produced by METARs form (0459 UTC 25 April 2014)
found at http://aviationweather.gov/adds/metars/
 
KLFT 250453Z AUTO 22004KT 10SM FEW011 SCT060 OVC070 22/20 A2993 RMK AO2 SLP135 T02220200